Terminal Aerodrome Forecast
Issued by NWS Grand Forks, ND

Home | Current Version | Previous Version | Text Only | Print | Product List | Glossary Off
Versions: 1 2 3 4 5 6 7 8 9 10 11 12 13 14 15 16 17 18 19

000
FTUS43 KFGF 021700
TAFFAR
TAF
KFAR 021732Z 0218/0318 19016G26KT P6SM SCT250
     FM030000 19012G22KT P6SM SCT140 BKN250
     FM030300 16008KT P6SM VCTS SCT050CB BKN120
     FM030700 17008KT P6SM BKN140=

USA.gov is the U.S. government's official web portal to all federal, state and local government web resources and services.